Time;durP1;ratioP1;P1;durP2;ratioP2;P2;SDS_P1;SDS_P2;PMS_P1;PMS_P2;Temp;Humidity;BMP_temperature;BMP_pressure;BME280_temperature;BME280_humidity;BME280_pressure;Samples;Min_cycle;Max_cycle;Signal;HPM_P1;HPM_P2
2022/02/18 00:00:46;;;;;;;6.53;1.60;;;;;;;5.27;63.07;99445.68;1478759;88;22289;-84
2022/02/18 00:03:16;;;;;;;4.40;1.77;;;;;;;5.23;63.26;99460.02;1488157;87;22416;-84
2022/02/18 00:05:44;;;;;;;3.40;1.43;;;;;;;5.19;63.14;99468.66;1475561;88;21617;-83
2022/02/18 00:08:10;;;;;;;4.37;1.53;;;;;;;5.17;63.46;99476.31;1474700;88;21624;-81
2022/02/18 00:10:37;;;;;;;5.57;1.43;;;;;;;5.13;63.40;99480.19;1456220;87;21418;-81
2022/02/18 00:13:03;;;;;;;3.83;1.20;;;;;;;5.12;63.45;99488.53;1474330;87;21521;-81
2022/02/18 00:15:30;;;;;;;3.17;1.40;;;;;;;5.10;63.61;99494.39;1470772;88;22481;-81
2022/02/18 00:17:56;;;;;;;7.27;1.47;;;;;;;5.10;63.65;99500.95;1462308;88;21402;-82
2022/02/18 00:20:22;;;;;;;3.13;0.97;;;;;;;5.05;63.91;99494.45;1480223;88;21698;-82
2022/02/18 00:22:50;;;;;;;4.00;1.30;;;;;;;5.03;63.87;99497.68;1480785;88;21469;-82
2022/02/18 00:25:17;;;;;;;2.70;1.50;;;;;;;4.99;64.11;99502.38;1476829;88;21537;-83
2022/02/18 00:27:43;;;;;;;4.93;1.50;;;;;;;4.96;64.15;99506.58;1474684;88;21529;-81
2022/02/18 00:30:11;;;;;;;7.43;2.03;;;;;;;4.93;64.27;99512.91;1485489;88;21550;-82
2022/02/18 00:32:37;;;;;;;7.10;1.63;;;;;;;4.90;64.33;99509.73;1465149;88;22438;-85
2022/02/18 00:35:06;;;;;;;5.57;1.93;;;;;;;4.87;64.64;99520.00;1482185;88;21565;-85
2022/02/18 00:37:33;;;;;;;2.17;0.93;;;;;;;4.86;64.84;99520.98;1474458;87;21506;-85
2022/02/18 00:39:59;;;;;;;3.83;1.30;;;;;;;4.88;65.13;99530.01;1484991;88;21573;-84
2022/02/18 00:42:26;;;;;;;5.77;1.20;;;;;;;4.89;65.45;99525.95;1486215;88;22437;-85
2022/02/18 00:44:53;;;;;;;3.87;1.10;;;;;;;4.91;65.27;99526.63;1466439;88;21447;-85
2022/02/18 00:47:19;;;;;;;5.90;1.50;;;;;;;4.92;65.12;99527.00;1489106;88;21594;-84
2022/02/18 00:49:45;;;;;;;4.73;2.03;;;;;;;4.93;65.04;99528.64;1479360;88;21491;-84
2022/02/18 00:52:11;;;;;;;5.87;1.40;;;;;;;4.91;64.97;99524.01;1486566;87;21432;-84
2022/02/18 00:54:38;;;;;;;4.00;1.40;;;;;;;4.90;64.98;99532.02;1465549;88;21455;-84
2022/02/18 00:57:04;;;;;;;4.90;1.87;;;;;;;4.86;65.03;99542.41;1420630;89;21446;-85
2022/02/18 00:59:30;;;;;;;3.07;1.50;;;;;;;4.82;64.97;99549.72;1456495;89;21439;-84
2022/02/18 01:01:58;;;;;;;2.53;1.43;;;;;;;4.75;65.09;99553.36;1458612;89;21482;-83
2022/02/18 01:04:24;;;;;;;4.13;1.90;;;;;;;4.71;64.91;99551.94;1460021;89;21483;-84
2022/02/18 01:06:51;;;;;;;4.83;1.60;;;;;;;4.67;65.04;99551.05;1458089;88;22431;-84
2022/02/18 01:09:17;;;;;;;6.17;2.00;;;;;;;4.64;64.94;99550.00;1466722;89;21454;-84
2022/02/18 01:11:43;;;;;;;3.87;1.80;;;;;;;4.59;65.19;99551.69;1478761;87;21447;-84
2022/02/18 01:14:09;;;;;;;5.80;1.57;;;;;;;4.55;65.25;99558.16;1488697;87;21514;-84
2022/02/18 01:16:35;;;;;;;2.67;1.07;;;;;;;4.49;65.11;99566.06;1483722;88;22401;-84
2022/02/18 01:19:02;;;;;;;6.90;1.63;;;;;;;4.40;65.21;99568.16;1479504;88;22445;-85
2022/02/18 01:21:28;;;;;;;4.50;1.17;;;;;;;4.32;64.98;99560.10;1488295;88;21529;-85
2022/02/18 01:23:56;;;;;;;1.90;1.13;;;;;;;4.32;64.98;99560.10;1492890;88;21470;-83
2022/02/18 01:26:22;;;;;;;3.57;1.30;;;;;;;4.27;65.13;99566.20;1487614;87;22330;-83
2022/02/18 01:28:48;;;;;;;2.37;1.20;;;;;;;4.27;65.13;99566.20;1487533;87;21491;-83
2022/02/18 01:31:14;;;;;;;4.43;1.60;;;;;;;4.23;65.16;99570.02;1486967;88;21477;-82
2022/02/18 01:33:41;;;;;;;4.33;1.97;;;;;;;4.12;65.15;99560.45;1495061;88;21411;-82
2022/02/18 01:36:07;;;;;;;2.67;0.90;;;;;;;4.12;65.52;99576.66;1489039;87;22180;-83
2022/02/18 01:38:33;;;;;;;3.10;1.33;;;;;;;4.10;65.44;99573.33;1468708;88;23058;-82
2022/02/18 01:40:59;;;;;;;3.87;1.97;;;;;;;4.12;65.79;99573.55;1477905;88;22815;-82
2022/02/18 01:43:26;;;;;;;3.37;1.40;;;;;;;4.15;65.35;99580.33;1484792;88;22171;-82
2022/02/18 01:45:52;;;;;;;4.23;1.77;;;;;;;4.16;65.25;99584.11;1485675;88;23040;-81
2022/02/18 01:48:18;;;;;;;5.93;1.10;;;;;;;4.10;64.81;99577.25;1475468;88;21551;-82
2022/02/18 01:50:44;;;;;;;2.23;1.00;;;;;;;4.13;64.74;99580.44;1485509;88;23080;-82
2022/02/18 01:53:12;;;;;;;4.77;1.37;;;;;;;4.13;64.63;99579.61;1478471;88;22121;-82
2022/02/18 01:55:39;;;;;;;5.10;1.80;;;;;;;4.09;64.69;99569.88;1476953;88;22230;-82
2022/02/18 01:58:07;;;;;;;5.03;1.77;;;;;;;4.04;64.60;99576.79;1473545;88;22533;-82
2022/02/18 02:00:35;;;;;;;4.83;2.00;;;;;;;3.99;64.27;99580.27;1482458;87;22329;-82
2022/02/18 02:03:02;;;;;;;4.90;1.60;;;;;;;3.96;64.46;99577.89;1462322;88;22280;-81
2022/02/18 02:05:29;;;;;;;9.83;1.83;;;;;;;3.87;64.41;99593.05;1473185;86;22226;-81
2022/02/18 02:07:56;;;;;;;6.63;1.77;;;;;;;3.87;64.41;99593.05;1484879;88;21516;-82
2022/02/18 02:10:23;;;;;;;9.53;2.60;;;;;;;3.82;64.57;99596.03;1485692;88;22091;-81
2022/02/18 02:12:52;;;;;;;4.77;2.00;;;;;;;3.78;64.66;99592.02;1475735;88;22121;-81
2022/02/18 02:15:24;;;;;;;8.03;1.90;;;;;;;3.75;64.60;99611.07;1480683;88;22120;-81
2022/02/18 02:17:51;;;;;;;5.33;1.83;;;;;;;3.70;64.72;99614.05;1453992;88;22135;-81
2022/02/18 02:20:18;;;;;;;4.00;1.47;;;;;;;3.65;64.75;99620.13;1484067;87;22342;-81
2022/02/18 02:22:45;;;;;;;3.77;1.40;;;;;;;3.60;65.00;99628.36;1484434;88;22318;-82
2022/02/18 02:25:12;;;;;;;5.17;1.90;;;;;;;3.52;65.34;99632.06;1484997;88;22245;-81
2022/02/18 02:27:39;;;;;;;6.40;1.77;;;;;;;3.39;65.58;99633.52;1485584;86;23287;-81
2022/02/18 02:30:10;;;;;;;4.87;2.07;;;;;;;3.31;66.16;99637.66;1477631;88;22342;-81
2022/02/18 02:32:36;;;;;;;2.98;1.00;;;;;;;3.23;66.21;99643.99;1488920;87;23406;-81
2022/02/18 02:35:03;;;;;;;6.23;1.33;;;;;;;3.10;66.56;99665.84;1476082;88;21602;-82
2022/02/18 02:37:29;;;;;;;4.97;1.73;;;;;;;3.00;66.90;99649.22;1494354;87;22105;-81
2022/02/18 02:39:55;;;;;;;5.20;1.50;;;;;;;2.98;67.29;99662.05;1487891;88;22039;-82
2022/02/18 02:42:22;;;;;;;5.63;1.50;;;;;;;2.90;67.25;99660.01;1478745;88;21456;-81
2022/02/18 02:44:49;;;;;;;7.77;2.50;;;;;;;2.81;67.35;99661.55;1484029;88;22075;-82
2022/02/18 02:47:15;;;;;;;5.17;1.40;;;;;;;2.71;67.39;99671.88;1482964;88;21955;-82
2022/02/18 02:49:41;;;;;;;10.43;1.87;;;;;;;2.62;67.54;99667.34;1484578;88;22384;-82
2022/02/18 02:52:07;;;;;;;6.60;1.43;;;;;;;2.56;67.91;99674.34;1483284;88;21886;-82
2022/02/18 02:54:34;;;;;;;6.67;2.23;;;;;;;2.55;67.62;99686.20;1487406;88;22345;-82
2022/02/18 02:57:00;;;;;;;4.73;1.50;;;;;;;2.53;67.47;99678.94;1482921;88;21412;-82
2022/02/18 02:59:26;;;;;;;3.67;1.23;;;;;;;2.54;67.42;99693.20;1486790;88;21697;-81
2022/02/18 03:01:53;;;;;;;5.17;1.80;;;;;;;2.56;67.41;99701.77;1482876;88;21866;-82
2022/02/18 03:04:19;;;;;;;2.67;1.67;;;;;;;2.61;67.25;99709.25;1484628;88;21413;-82
2022/02/18 03:06:46;;;;;;;4.80;2.07;;;;;;;2.67;67.05;99713.53;1480692;88;21781;-82
2022/02/18 03:09:13;;;;;;;5.27;1.40;;;;;;;2.74;66.68;99724.38;1473745;88;21897;-82
2022/02/18 03:11:40;;;;;;;2.93;1.33;;;;;;;2.74;66.68;99724.38;1466290;88;21873;-81
2022/02/18 03:14:07;;;;;;;8.93;3.43;;;;;;;2.77;66.47;99730.69;1459680;88;21799;-82
2022/02/18 03:16:33;;;;;;;8.47;3.07;;;;;;;2.79;66.43;99739.25;1481422;87;21919;-82
2022/02/18 03:19:00;;;;;;;7.23;3.27;;;;;;;2.79;66.43;99739.25;1479325;86;22703;-84
2022/02/18 03:21:25;;;;;;;7.17;3.03;;;;;;;2.78;66.05;99739.34;1481849;88;21886;-84
2022/02/18 03:23:52;;;;;;;10.37;2.90;;;;;;;2.76;66.00;99738.62;1462289;88;21843;-85
2022/02/18 03:26:19;;;;;;;6.30;3.00;;;;;;;2.75;66.10;99743.02;1482285;88;21435;-84
2022/02/18 03:28:46;;;;;;;10.40;3.47;;;;;;;2.69;66.04;99737.77;1480664;88;22055;-84
2022/02/18 03:31:12;;;;;;;11.00;4.07;;;;;;;2.68;66.19;99736.60;1484415;88;21952;-84
2022/02/18 03:33:39;;;;;;;13.57;4.57;;;;;;;2.63;66.09;99736.93;1486403;88;21873;-84
2022/02/18 03:36:06;;;;;;;13.23;4.33;;;;;;;2.60;66.35;99731.94;1480962;88;22693;-85
2022/02/18 03:38:34;;;;;;;7.50;2.80;;;;;;;2.53;66.62;99741.16;1478921;88;21817;-85
2022/02/18 03:41:02;;;;;;;7.37;2.07;;;;;;;2.53;66.62;99741.16;1478732;88;21879;-85
2022/02/18 03:43:28;;;;;;;23.10;7.97;;;;;;;2.55;66.75;99739.27;1486787;88;21862;-84
2022/02/18 03:45:54;;;;;;;41.27;15.13;;;;;;;2.53;66.79;99745.07;1484414;88;21962;-84
2022/02/18 03:48:21;;;;;;;53.07;19.83;;;;;;;2.51;66.76;99737.84;1491867;88;22586;-85
2022/02/18 03:50:47;;;;;;;56.53;20.47;;;;;;;2.48;66.77;99745.91;1475215;88;21761;-81
2022/02/18 03:53:14;;;;;;;53.67;21.53;;;;;;;2.38;66.83;99748.81;1458455;88;21849;-82
2022/02/18 03:55:41;;;;;;;56.90;21.97;;;;;;;2.38;66.83;99748.81;1474671;88;21834;-81
2022/02/18 03:58:07;;;;;;;49.87;19.27;;;;;;;2.34;67.06;99752.61;1467130;88;21775;-82
2022/02/18 04:00:34;;;;;;;44.30;16.40;;;;;;;2.31;67.27;99765.41;1488630;88;21877;-83
2022/02/18 04:03:00;;;;;;;28.70;11.53;;;;;;;2.26;67.19;99763.13;1474204;88;22989;-84
2022/02/18 04:05:26;;;;;;;14.80;6.07;;;;;;;2.24;67.58;99769.39;1464406;89;21763;-84
2022/02/18 04:07:53;;;;;;;6.20;2.83;;;;;;;2.24;67.58;99769.39;1460758;89;21934;-84
2022/02/18 04:10:19;;;;;;;9.10;2.97;;;;;;;2.28;67.37;99776.56;1441171;89;21792;-81
2022/02/18 04:12:45;;;;;;;21.53;7.63;;;;;;;2.40;67.09;99772.58;1468873;88;21774;-81
2022/02/18 04:15:11;;;;;;;7.97;2.97;;;;;;;2.63;66.56;99769.59;1462614;87;21823;-81
2022/02/18 04:17:37;;;;;;;8.93;2.70;;;;;;;2.77;66.29;99776.89;1480400;88;21454;-81
2022/02/18 04:20:05;;;;;;;5.90;2.20;;;;;;;2.98;65.44;99774.45;1476122;88;22066;-81
2022/02/18 04:22:31;;;;;;;8.33;2.47;;;;;;;3.15;65.59;99789.22;1434717;89;21914;-81
2022/02/18 04:24:57;;;;;;;5.00;1.53;;;;;;;3.24;64.66;99786.39;1461648;89;22209;-81
2022/02/18 04:27:23;;;;;;;4.33;1.60;;;;;;;3.24;64.66;99786.39;1440849;89;22510;-80
2022/02/18 04:29:49;;;;;;;6.23;2.20;;;;;;;3.38;63.81;99801.86;1456478;89;21624;-80
2022/02/18 04:32:16;;;;;;;6.23;2.10;;;;;;;3.38;63.81;99801.86;1459631;88;22225;-81
2022/02/18 04:34:42;;;;;;;4.60;2.00;;;;;;;3.43;64.22;99805.93;1469178;88;22382;-80
2022/02/18 04:37:08;;;;;;;3.50;1.73;;;;;;;3.43;64.22;99805.93;1482268;88;22099;-81
2022/02/18 04:39:34;;;;;;;7.73;1.87;;;;;;;3.46;64.67;99813.06;1478200;87;23169;-80
2022/02/18 04:42:00;;;;;;;6.00;2.70;;;;;;;3.43;64.81;99817.22;1470648;88;22443;-80
2022/02/18 04:44:26;;;;;;;8.57;2.17;;;;;;;3.30;64.96;99829.55;1484917;88;22993;-81
2022/02/18 04:46:52;;;;;;;5.57;1.37;;;;;;;3.30;64.96;99829.55;1477843;88;22321;-81
2022/02/18 04:49:19;;;;;;;7.43;2.97;;;;;;;3.25;65.27;99823.83;1479714;88;23118;-80
2022/02/18 04:51:45;;;;;;;10.90;4.37;;;;;;;3.12;65.65;99820.83;1481054;88;22005;-81
2022/02/18 04:54:11;;;;;;;10.90;3.43;;;;;;;3.12;65.65;99820.83;1470752;88;21903;-81
2022/02/18 04:56:37;;;;;;;5.43;1.73;;;;;;;3.08;65.64;99821.16;1446216;88;21603;-80
2022/02/18 04:59:04;;;;;;;4.07;1.60;;;;;;;3.08;65.64;99821.16;1489410;88;21998;-81
2022/02/18 05:01:31;;;;;;;5.90;1.33;;;;;;;3.07;65.83;99828.66;1466206;88;21978;-81
2022/02/18 05:03:57;;;;;;;6.90;1.87;;;;;;;3.01;66.01;99842.19;1481991;88;21932;-81
2022/02/18 05:06:23;;;;;;;5.60;2.00;;;;;;;3.01;66.01;99842.19;1473400;88;24124;-81
2022/02/18 05:08:49;;;;;;;6.60;1.83;;;;;;;2.95;66.06;99840.86;1470612;88;22564;-81
2022/02/18 05:11:15;;;;;;;6.13;2.53;;;;;;;2.83;66.41;99830.84;1478651;88;22136;-81
2022/02/18 05:13:41;;;;;;;7.43;1.47;;;;;;;2.83;66.72;99850.44;1477477;87;21625;-81
2022/02/18 05:16:07;;;;;;;7.13;2.03;;;;;;;2.81;66.85;99860.64;1469359;87;22120;-81
2022/02/18 05:18:36;;;;;;;9.13;1.97;;;;;;;2.77;66.77;99865.75;1465287;88;22978;-82
2022/02/18 05:21:02;;;;;;;4.13;1.63;;;;;;;2.71;66.72;99873.08;1470856;88;22063;-81
2022/02/18 05:23:28;;;;;;;4.33;1.43;;;;;;;2.62;67.04;99868.52;1468440;89;21999;-82
2022/02/18 05:25:54;;;;;;;5.33;2.10;;;;;;;2.61;67.07;99870.75;1455905;89;22834;-82
2022/02/18 05:28:22;;;;;;;5.33;1.53;;;;;;;2.61;67.39;99875.15;1457617;89;21669;-82
2022/02/18 05:30:48;;;;;;;4.40;1.53;;;;;;;2.60;67.30;99870.41;1458720;89;22696;-81
2022/02/18 05:33:14;;;;;;;4.80;1.43;;;;;;;2.64;67.61;99881.45;1459889;89;21824;-82
2022/02/18 05:35:41;;;;;;;4.93;1.97;;;;;;;2.64;67.61;99881.45;1458594;88;21756;-82
2022/02/18 05:38:08;;;;;;;11.93;3.37;;;;;;;2.65;67.65;99886.59;1460563;87;22535;-82
2022/02/18 05:40:34;;;;;;;5.43;1.83;;;;;;;2.62;67.55;99882.89;1466471;88;21900;-82
2022/02/18 05:43:01;;;;;;;5.27;1.70;;;;;;;2.57;67.63;99890.70;1474363;88;23007;-82
2022/02/18 05:45:28;;;;;;;8.57;2.70;;;;;;;2.48;67.80;99895.63;1475587;88;22038;-83
2022/02/18 05:47:54;;;;;;;6.33;2.03;;;;;;;2.41;67.99;99903.52;1458287;88;21733;-82
2022/02/18 05:50:21;;;;;;;8.97;1.90;;;;;;;2.38;68.35;99910.74;1471240;88;21526;-82
2022/02/18 05:52:47;;;;;;;11.03;2.83;;;;;;;2.37;68.54;99909.91;1477479;88;21920;-82
2022/02/18 05:55:14;;;;;;;6.03;1.90;;;;;;;2.36;68.46;99906.09;1470028;87;21906;-82
2022/02/18 05:57:40;;;;;;;7.03;2.53;;;;;;;2.37;68.65;99908.61;1469559;87;21843;-82
2022/02/18 06:00:09;;;;;;;7.90;1.87;;;;;;;2.36;69.13;99904.78;1476806;88;22561;-82
2022/02/18 06:02:36;;;;;;;10.37;4.23;;;;;;;2.39;69.14;99908.03;1483225;88;21821;-82
2022/02/18 06:05:03;;;;;;;5.77;2.20;;;;;;;2.50;69.18;99909.87;1484828;88;22750;-82
2022/02/18 06:07:30;;;;;;;7.70;2.70;;;;;;;2.60;68.99;99910.06;1476995;87;21874;-84
2022/02/18 06:09:55;;;;;;;11.77;2.87;;;;;;;2.67;68.77;99910.80;1471557;88;21857;-83
2022/02/18 06:12:22;;;;;;;5.33;2.23;;;;;;;2.76;68.59;99903.25;1472417;88;21757;-83
2022/02/18 06:14:51;;;;;;;5.37;2.13;;;;;;;2.84;68.50;99904.38;1478103;88;21553;-83
2022/02/18 06:17:18;;;;;;;8.63;2.47;;;;;;;2.94;68.16;99913.23;1480998;87;21997;-83
2022/02/18 06:19:44;;;;;;;10.43;2.70;;;;;;;3.04;67.93;99916.47;1478113;88;22814;-83
2022/02/18 06:22:10;;;;;;;4.07;1.53;;;;;;;3.13;67.94;99923.64;1466326;88;22376;-84
2022/02/18 06:24:36;;;;;;;6.57;2.30;;;;;;;3.18;67.15;99911.55;1471259;88;21855;-83
2022/02/18 06:27:02;;;;;;;5.23;1.70;;;;;;;3.40;66.99;99915.56;1476232;88;21463;-83
2022/02/18 06:29:29;;;;;;;5.10;1.30;;;;;;;3.40;66.99;99915.56;1475601;87;22630;-82
2022/02/18 06:31:56;;;;;;;7.10;2.87;;;;;;;3.49;67.13;99913.55;1471422;88;22189;-82
2022/02/18 06:34:25;;;;;;;3.47;1.53;;;;;;;3.57;66.81;99915.13;1473530;88;23101;-81
2022/02/18 06:36:51;;;;;;;3.40;1.27;;;;;;;3.66;66.35;99916.70;1466300;88;23018;-81
2022/02/18 06:39:19;;;;;;;15.90;4.10;;;;;;;3.76;65.92;99917.66;1474517;87;22203;-82
2022/02/18 06:41:47;;;;;;;6.10;1.60;;;;;;;3.86;65.70;99915.19;1436679;88;22225;-81
2022/02/18 06:44:14;;;;;;;7.77;2.33;;;;;;;3.93;65.59;99917.20;1475383;88;22205;-81
2022/02/18 06:46:41;;;;;;;7.87;2.77;;;;;;;3.99;65.08;99921.96;1477092;87;22198;-82
2022/02/18 06:49:07;;;;;;;5.47;1.83;;;;;;;4.06;65.41;99931.52;1476722;88;22220;-81
2022/02/18 06:51:34;;;;;;;7.53;2.30;;;;;;;4.10;65.33;99925.55;1473566;88;22241;-81
2022/02/18 06:54:01;;;;;;;6.83;2.80;;;;;;;4.13;65.09;99919.59;1476451;88;24628;-81
2022/02/18 06:56:28;;;;;;;9.00;2.97;;;;;;;4.22;65.64;99924.59;1480572;87;22153;-81
2022/02/18 06:58:57;;;;;;;11.93;3.70;;;;;;;4.31;65.25;99922.08;1466795;88;23019;-81
2022/02/18 07:01:23;;;;;;;12.17;3.20;;;;;;;4.37;65.07;99922.08;1475057;87;21448;-81
2022/02/18 07:03:49;;;;;;;7.47;3.60;;;;;;;4.50;65.34;99934.59;1483629;88;21456;-81
2022/02/18 07:06:15;;;;;;;9.60;2.70;;;;;;;4.59;65.10;99933.03;1475804;88;21441;-81
2022/02/18 07:08:41;;;;;;;6.50;2.43;;;;;;;4.68;64.59;99937.53;1475455;88;21478;-81
2022/02/18 07:11:07;;;;;;;4.63;2.27;;;;;;;4.78;64.42;99949.45;1485318;87;21367;-81
2022/02/18 07:13:33;;;;;;;5.93;2.10;;;;;;;4.87;64.77;99944.78;1484827;87;22401;-82
2022/02/18 07:15:59;;;;;;;10.83;2.13;;;;;;;4.96;64.23;99950.59;1475328;88;21581;-82
2022/02/18 07:18:25;;;;;;;5.73;2.43;;;;;;;5.04;62.77;99959.17;1479534;87;21478;-81
2022/02/18 07:20:52;;;;;;;4.13;2.33;;;;;;;5.12;63.11;99969.02;1474911;88;21485;-81
2022/02/18 07:23:18;;;;;;;4.77;1.70;;;;;;;5.23;63.72;99973.41;1471135;87;21354;-81
2022/02/18 07:25:45;;;;;;;5.53;1.80;;;;;;;5.32;63.40;99976.14;1468158;88;21568;-81
2022/02/18 07:28:11;;;;;;;5.03;1.80;;;;;;;5.40;62.68;99988.13;1478332;87;21426;-82
2022/02/18 07:30:38;;;;;;;4.10;1.90;;;;;;;5.49;62.55;99994.41;1481258;88;21514;-81
2022/02/18 07:33:05;;;;;;;6.97;1.97;;;;;;;5.56;60.65;100000.02;1477422;87;21686;-82
2022/02/18 07:35:34;;;;;;;7.83;2.43;;;;;;;5.57;59.02;100005.61;1474752;87;21462;-81
2022/02/18 07:38:02;;;;;;;5.73;2.23;;;;;;;5.63;60.08;100006.42;1486920;87;21477;-81
2022/02/18 07:40:28;;;;;;;5.73;2.40;;;;;;;5.68;59.22;100011.30;1479044;88;21568;-81
2022/02/18 07:42:55;;;;;;;7.03;2.93;;;;;;;5.77;59.81;100021.88;1457127;87;21478;-80
2022/02/18 07:45:23;;;;;;;14.27;4.97;;;;;;;5.87;59.31;100017.53;1453708;89;21492;-81
2022/02/18 07:47:56;;;;;;;27.80;11.07;;;;;;;5.94;58.76;100017.05;1465584;88;21599;-80
2022/02/18 07:50:24;;;;;;;13.57;5.07;;;;;;;5.98;58.06;100020.59;1471964;88;21743;-81
2022/02/18 07:52:51;;;;;;;8.93;2.60;;;;;;;6.02;58.21;100022.50;1453082;88;21618;-80
2022/02/18 07:55:18;;;;;;;7.47;2.77;;;;;;;6.05;57.86;100019.63;1462233;88;21640;-81
2022/02/18 07:57:44;;;;;;;5.53;2.67;;;;;;;6.10;58.46;100021.39;1455363;88;21470;-80
2022/02/18 08:00:12;;;;;;;9.67;3.50;;;;;;;6.13;57.33;100015.88;1470129;88;21404;-81
2022/02/18 08:02:39;;;;;;;8.03;2.90;;;;;;;6.13;57.58;100007.98;1464334;88;21485;-81
2022/02/18 08:05:06;;;;;;;5.90;2.57;;;;;;;6.17;57.42;100009.38;1468949;88;22513;-81
2022/02/18 08:07:32;;;;;;;13.20;3.00;;;;;;;6.26;57.85;100015.17;1465140;88;21462;-81
2022/02/18 08:09:58;;;;;;;9.40;2.73;;;;;;;6.35;57.82;100010.10;1471155;88;22357;-80
2022/02/18 08:12:24;;;;;;;5.23;2.13;;;;;;;6.43;58.08;100009.80;1469412;88;22011;-80
2022/02/18 08:14:51;;;;;;;3.67;2.00;;;;;;;6.53;57.98;100009.83;1466900;88;24021;-81
2022/02/18 08:17:17;;;;;;;5.53;2.50;;;;;;;6.62;57.71;100023.98;1477354;88;21483;-81
2022/02/18 08:19:45;;;;;;;9.33;2.10;;;;;;;6.69;57.00;100031.22;1478747;88;22466;-79
2022/02/18 08:22:13;;;;;;;8.03;2.10;;;;;;;6.78;56.14;100040.94;1471944;88;22131;-82
2022/02/18 08:24:40;;;;;;;4.03;1.93;;;;;;;6.86;56.92;100044.23;1475004;87;21529;-80
2022/02/18 08:27:07;;;;;;;5.60;2.10;;;;;;;6.95;56.63;100045.23;1454149;88;21686;-79
2022/02/18 08:29:33;;;;;;;5.67;1.93;;;;;;;7.05;56.02;100046.56;1468556;88;21500;-80
2022/02/18 08:31:59;;;;;;;9.97;2.83;;;;;;;7.14;56.29;100051.88;1475512;88;21543;-79
2022/02/18 08:34:25;;;;;;;6.37;2.43;;;;;;;7.24;56.04;100054.52;1471006;88;21470;-82
2022/02/18 08:36:52;;;;;;;6.80;2.00;;;;;;;7.36;56.27;100061.33;1475588;88;21677;-81
2022/02/18 08:39:19;;;;;;;6.03;2.50;;;;;;;7.52;57.00;100065.25;1472764;88;21647;-81
2022/02/18 08:41:45;;;;;;;5.30;1.93;;;;;;;7.68;56.79;100069.02;1472777;88;22514;-80
2022/02/18 08:44:14;;;;;;;4.40;2.07;;;;;;;7.75;55.04;100075.05;1474538;88;21499;-81
2022/02/18 08:46:40;;;;;;;7.93;3.00;;;;;;;7.78;54.64;100081.35;1472675;88;22689;-81
2022/02/18 08:49:06;;;;;;;11.70;3.93;;;;;;;7.77;52.36;100079.67;1480061;88;21582;-81
2022/02/18 08:51:32;;;;;;;5.73;2.33;;;;;;;7.84;52.89;100070.26;1474677;88;22170;-82
2022/02/18 08:53:59;;;;;;;8.27;2.10;;;;;;;7.92;53.88;100083.58;1474285;88;21750;-81
2022/02/18 08:56:28;;;;;;;10.97;2.73;;;;;;;7.97;53.19;100080.50;1470371;88;22386;-83
2022/02/18 08:58:54;;;;;;;11.50;3.00;;;;;;;8.03;53.95;100087.39;1474031;88;21691;-82
2022/02/18 09:01:20;;;;;;;5.47;2.30;;;;;;;8.16;52.98;100089.73;1470448;88;22476;-83
2022/02/18 09:03:46;;;;;;;6.93;3.10;;;;;;;8.21;53.53;100082.73;1472864;88;21531;-82
2022/02/18 09:06:12;;;;;;;10.07;2.33;;;;;;;8.30;52.15;100070.84;1459936;88;22732;-82
2022/02/18 09:08:38;;;;;;;6.27;2.23;;;;;;;8.35;52.90;100069.11;1479620;88;22631;-82
2022/02/18 09:11:04;;;;;;;4.73;2.30;;;;;;;8.43;51.73;100071.91;1480375;88;21412;-83
2022/02/18 09:13:30;;;;;;;3.83;2.03;;;;;;;8.46;51.39;100071.62;1470291;88;22488;-82
2022/02/18 09:15:56;;;;;;;7.43;2.37;;;;;;;8.50;52.47;100079.58;1463317;87;21475;-82
2022/02/18 09:18:23;;;;;;;10.07;2.43;;;;;;;8.59;52.26;100074.75;1475064;87;21432;-83
2022/02/18 09:20:49;;;;;;;4.90;1.93;;;;;;;8.70;52.42;100075.56;1474679;87;21499;-82
2022/02/18 09:23:15;;;;;;;6.40;3.00;;;;;;;8.78;50.20;100078.32;1476228;87;23774;-83
2022/02/18 09:25:42;;;;;;;5.03;2.40;;;;;;;8.96;52.03;100081.02;1470284;87;21403;-82
2022/02/18 09:28:10;;;;;;;6.57;2.77;;;;;;;9.10;51.01;100081.86;1471960;87;21447;-83
2022/02/18 09:30:44;;;;;;;9.87;2.47;;;;;;;9.35;52.44;100081.67;1474008;87;21449;-83
2022/02/18 09:33:15;;;;;;;9.93;2.37;;;;;;;9.64;47.72;100078.01;1472765;86;21588;-82
2022/02/18 09:35:42;;;;;;;3.95;1.67;;;;;;;10.31;50.65;100083.23;1474641;87;21781;-83
2022/02/18 09:38:09;;;;;;;5.03;1.97;;;;;;;10.78;45.04;100084.19;1468903;87;22256;-83
2022/02/18 09:40:36;;;;;;;6.57;1.80;;;;;;;11.21;45.21;100075.77;1464192;86;21660;-83
2022/02/18 09:43:03;;;;;;;6.93;2.00;;;;;;;11.96;45.51;100070.98;1472672;86;23530;-84
2022/02/18 09:45:30;;;;;;;3.43;1.70;;;;;;;12.74;43.67;100066.91;1475334;87;21528;-85
2022/02/18 09:47:57;;;;;;;4.33;2.00;;;;;;;13.00;39.98;100071.97;1478021;87;21645;-85
2022/02/18 09:50:25;;;;;;;2.43;1.50;;;;;;;13.65;41.70;100066.86;1470540;87;21541;-85
2022/02/18 09:52:51;;;;;;;6.27;2.97;;;;;;;13.61;37.37;100070.38;1473038;87;21588;-84
2022/02/18 09:55:18;;;;;;;4.63;1.93;;;;;;;14.38;38.22;100070.25;1474699;87;22103;-85
2022/02/18 09:57:46;;;;;;;9.90;1.93;;;;;;;14.81;37.41;100066.51;1477890;87;21505;-85
2022/02/18 10:00:14;;;;;;;5.33;2.90;;;;;;;14.77;34.06;100067.08;1477903;87;21706;-85
2022/02/18 10:02:40;;;;;;;4.90;2.17;;;;;;;15.23;36.58;100058.34;1471106;87;21618;-85
2022/02/18 10:05:07;;;;;;;2.80;1.60;;;;;;;15.42;35.62;100055.61;1473382;87;21559;-85
2022/02/18 10:07:36;;;;;;;3.15;1.42;;;;;;;15.38;32.36;100052.98;1473094;87;21462;-85
2022/02/18 10:10:15;;;;;;;5.87;2.27;;;;;;;15.81;34.50;100062.39;1470804;87;21582;-86
2022/02/18 10:12:43;;;;;;;3.47;1.62;;;;;;;15.83;32.96;100066.22;1475236;87;21564;-85
2022/02/18 10:15:09;;;;;;;2.67;1.80;;;;;;;16.00;33.66;100064.94;1471283;87;22433;-85
2022/02/18 10:17:45;;;;;;;5.92;2.15;;;;;;;16.10;31.47;100061.93;1460878;87;21471;-85
2022/02/18 10:20:24;;;;;;;4.25;2.08;;;;;;;16.23;31.55;100062.88;1455163;88;22615;-85
2022/02/18 10:22:58;;;;;;;4.25;2.40;;;;;;;15.86;30.33;100063.98;1461011;88;22439;-84
2022/02/18 10:25:29;;;;;;;2.40;1.20;;;;;;;15.76;29.65;100063.46;1456672;88;21574;-83
2022/02/18 10:27:56;;;;;;;2.30;1.27;;;;;;;15.48;28.88;100066.03;1460985;88;21741;-84
2022/02/18 10:30:25;;;;;;;4.00;1.40;;;;;;;15.71;31.44;100073.39;1462568;88;21683;-84
2022/02/18 10:32:54;;;;;;;1.75;0.85;;;;;;;15.86;31.16;100071.98;1467456;88;21736;-85
2022/02/18 10:35:31;;;;;;;4.70;1.92;;;;;;;15.83;28.58;100072.89;1462326;88;21449;-85
2022/02/18 10:37:57;;;;;;;3.80;1.55;;;;;;;15.58;28.93;100067.36;1465394;88;21551;-83
2022/02/18 10:40:24;;;;;;;2.12;1.40;;;;;;;15.39;27.84;100068.47;1455563;88;21531;-84
2022/02/18 10:42:53;;;;;;;3.33;2.08;;;;;;;15.70;31.10;100064.22;1459823;88;22292;-83
2022/02/18 10:45:28;;;;;;;7.35;1.95;;;;;;;14.87;27.27;100071.61;1467271;88;21432;-84
2022/02/18 10:48:13;;;;;;;5.47;2.30;;;;;;;15.12;29.72;100059.64;1466209;88;21411;-84
2022/02/18 10:50:39;;;;;;;2.83;1.72;;;;;;;14.95;30.18;100058.70;1468468;88;21515;-82
2022/02/18 10:53:15;;;;;;;6.55;2.00;;;;;;;15.28;30.61;100055.13;1462538;88;22822;-82
2022/02/18 10:55:55;;;;;;;3.65;1.65;;;;;;;15.06;29.61;100055.58;1445119;88;21494;-82
2022/02/18 10:58:38;;;;;;;2.97;1.20;;;;;;;15.05;30.19;100050.75;1461154;88;21516;-83
2022/02/18 11:01:28;;;;;;;4.17;1.60;;;;;;;15.17;29.54;100052.95;1462219;88;23238;-84
2022/02/18 11:04:03;;;;;;;2.35;1.70;;;;;;;15.08;29.82;100049.56;1457457;88;21478;-85
2022/02/18 11:06:34;;;;;;;3.22;1.40;;;;;;;14.94;29.04;100043.23;1445591;88;21506;-84
2022/02/18 11:09:09;;;;;;;3.77;1.60;;;;;;;15.28;31.09;100042.62;1459403;88;21426;-84
2022/02/18 11:11:46;;;;;;;2.87;1.40;;;;;;;15.42;31.08;100039.61;1464774;88;22515;-84
2022/02/18 11:14:17;;;;;;;8.58;3.10;;;;;;;15.44;29.26;100040.73;1463350;88;21679;-84
2022/02/18 11:16:52;;;;;;;4.03;2.25;;;;;;;15.55;29.63;100046.91;1466493;88;22568;-84
2022/02/18 11:19:17;;;;;;;3.42;1.57;;;;;;;15.62;29.70;100048.30;1465518;88;21476;-84
2022/02/18 11:21:43;;;;;;;4.08;1.70;;;;;;;15.55;30.01;100034.91;1465527;87;21411;-84
2022/02/18 11:24:09;;;;;;;3.00;1.85;;;;;;;15.75;29.72;100041.30;1468368;88;21389;-84
2022/02/18 11:26:35;;;;;;;3.47;1.62;;;;;;;15.48;28.43;100032.18;1472487;88;22498;-84
2022/02/18 11:29:02;;;;;;;4.83;1.62;;;;;;;15.51;28.81;100030.98;1476166;88;21500;-84
2022/02/18 11:31:33;;;;;;;7.60;2.47;;;;;;;15.65;29.34;100030.09;1455606;88;21479;-84
2022/02/18 11:34:46;;;;;;;2.95;1.30;;;;;;;15.70;26.86;100030.36;1454751;88;21562;-84
2022/02/18 11:37:51;;;;;;;3.00;1.45;;;;;;;15.71;26.15;100032.03;1456954;88;22256;-84